الصفحة الرئيسية
METAR-TAF:

METAR-TAF

مطار :

مطار أوكلاند الدولي

أوكلاند, نيوزيلندا

دائرة عرض: 37-01S, خط طول: 174-48E, ارتفاع: 7 متر

مراقبة الطقس الحالي

تاريخ ووقت الإصدار 22 دقيقة قبل الساعة 00:00UTC
ريح 15 عقدة من الجنوب الغربي
درجة الحرارة 14°درجة مئوية
الرطوبة 72%
ضغط 1009 hPa
الرؤية 10 كم أو أكثر

METAR: NZAA 180000Z AUTO 23015KT 9999 NCD 14/09 Q1009 TEMPO 7000 SHRA

زمن: 12:22 (00:22 UTC)

توقعات

تاريخ ووقت الإصدار 44 دقيقة قبل الساعة 23:38UTC
التوقعات صالحة من18 الساعة 00 UTC إلى 19 الساعة 00 UTC
ريح 15 عقدة من الغرب/الجنوب الغربي تتزايد حتى 25 عقدة
الرؤية 10 كم أو أكثر
غيوم قليلة على ارتفاع 3000 قدم
زخات من الأمطار الخفيفة
أصبح
من 18 الساعة 03 UTC إلى 18 الساعة 05 UTC
ريح 15 عقدة من الغرب/الجنوب الغربي
أصبح
من 18 الساعة 08 UTC إلى 18 الساعة 10 UTC
ريح 5 عقدة من الغرب/الجنوب الغربي
نظرية الاحتمالات 30%
من 18 الساعة 14 UTC إلى 18 الساعة 20 UTC
الرؤية: 0400 متر
ضباب

TAF: NZAA 172338Z 1800/1900 24015G25KT 9999 -SHRA FEW030 BECMG 1803/1805 25015KT BECMG 1808/1810 24005KT PROB30 1814/1820 0400 FG

أرصاد الطقس والتوقعات من أكثر من 4000 مطار (تقارير الطقس للمطار METAR والتنبؤ بالطقس بالمطارTAF).

المحطات المتاحة هي النقط الصفراء والحمراء على الخريطة.

حرك المؤشر فوق النقطة لمعرفة اسم المحطة.

ثم انقر لمعرفة أرصاد وتوقعات الطقس.

لتغيير الخارطة: اضغط على الأزرار الخضراء مع رمز الصليب الأسود للتكبير. على الزر الأخضر مع شرطة للتصغير، أو على الأسهم الخضراء للخرائط المجاورة.


METAR-TAF: